Pagina principale
METAR-TAF:

METAR-TAF

Aeroporti :

Biserta, Tunisia

latitudine: 37-15N, longitudine: 009-48E, altezza: 5 m

Osservazione

Il bollettino è stato emesso 1 ora e 33 minuti fa, alle 09:00 UTC
Vento 4 kt da sud
Temperature 25°C
Umidità 44%
Pressione 1020 hPa
Visibilità 10 km o più
Nubi sparse ad un'altezza di 2000 ft

METAR: DTTB 210900Z 17004KT 9999 SCT020 25/12 Q1020

Ora: 11:33 (10:33 UTC)

Previsione

Il bollettino è stato emesso 1 ora e 20 minuti fa, alle 09:13 UTC
Previsione valida dal 21 alle 10 UTC al 21 alle 19 UTC
Vento 8 kt da nord/nord-ovest
Visibilità 10 km o più
Nubi sparse ad un'altezza di 2000 ft
Evoluzione graduale
dal 21 alle 16 UTC al 21 alle 18 UTC
Vento 8 kt da est/nord-est

TAF: DTTB 210913Z 2110/2119 34008KT 9999 SCT020 BECMG 2116/2118 07008KT

Osservazioni e previsioni meteorologiche di più di 4000 aeroporti (messaggi METAR e TAF).

Le stazioni disponibili sono rappresentate dai dischi gialli e rossi sulla carta.

Puntare il mouse per vedere il nome della stazione.

Clicca sopra per visualizzare le osservazioni e previsioni meteorologiche.

Per cambiare la mappa : fare clic sui pulsanti verdi con una croce nera per ingrandire, il pulsante verde con un trattino per diminuire, o sulla freccia verde per le mappe adiacenti.


METAR-TAF: